Time;durP1;ratioP1;P1;durP2;ratioP2;P2;SDS_P1;SDS_P2;PMS_P1;PMS_P2;Temp;Humidity;BMP_temperature;BMP_pressure;BME280_temperature;BME280_humidity;BME280_pressure;Samples;Min_cycle;Max_cycle;Signal;HPM_P1;HPM_P2
2022/05/22 00:01:15;;;;;;;4.20;1.90;;;10.30;99.90;;;;;;5091903;28;20036;-63
2022/05/22 00:03:41;;;;;;;5.95;2.00;;;10.30;99.90;;;;;;5075429;28;20097;-63
2022/05/22 00:06:07;;;;;;;5.05;2.10;;;10.20;99.90;;;;;;5108331;28;20027;-63
2022/05/22 00:08:33;;;;;;;4.60;2.10;;;10.20;99.90;;;;;;5109954;28;20520;-63
2022/05/22 00:10:59;;;;;;;4.78;2.05;;;10.20;99.90;;;;;;5108969;28;20036;-64
2022/05/22 00:13:25;;;;;;;5.40;2.22;;;10.20;99.90;;;;;;5110895;28;20048;-63
2022/05/22 00:18:34;;;;;;;5.47;2.70;;;10.20;99.90;;;;;;5109097;28;20123;-63
2022/05/22 00:21:00;;;;;;;9.23;3.53;;;10.10;99.90;;;;;;5089431;28;20624;-64
2022/05/22 00:23:28;;;;;;;4.93;2.50;;;10.10;99.90;;;;;;5090894;28;20074;-63
2022/05/22 00:25:57;;;;;;;7.68;3.08;;;10.10;99.90;;;;;;5106439;28;20134;-63
2022/05/22 00:28:23;;;;;;;6.68;3.35;;;10.10;99.90;;;;;;5109092;28;20505;-63
2022/05/22 00:30:49;;;;;;;6.68;4.00;;;10.10;99.90;;;;;;5090687;28;20040;-63
2022/05/22 00:33:14;;;;;;;9.40;3.22;;;10.10;99.90;;;;;;5089278;28;20606;-63
2022/05/22 00:35:41;;;;;;;8.05;3.80;;;10.00;99.90;;;;;;5107956;28;20119;-63
2022/05/22 00:38:06;;;;;;;9.00;3.55;;;10.00;99.90;;;;;;5107288;28;20070;-63
2022/05/22 00:40:33;;;;;;;6.65;3.55;;;10.00;99.90;;;;;;5110412;28;21198;-63
2022/05/22 00:42:58;;;;;;;5.43;3.60;;;10.00;99.90;;;;;;5091446;28;20030;-63
2022/05/22 00:45:24;;;;;;;7.25;3.60;;;10.00;99.90;;;;;;5107988;28;20499;-63
2022/05/22 00:47:51;;;;;;;6.80;4.00;;;10.00;99.90;;;;;;5086994;28;20405;-62
2022/05/22 00:50:18;;;;;;;8.23;4.00;;;10.00;99.90;;;;;;5107958;28;20040;-62
2022/05/22 00:52:48;;;;;;;6.50;3.60;;;10.00;99.90;;;;;;5090291;28;20501;-63
2022/05/22 00:55:16;;;;;;;4.32;2.00;;;10.00;99.90;;;;;;5091241;28;20047;-63
2022/05/22 00:57:44;;;;;;;2.75;1.40;;;10.00;99.90;;;;;;5091425;28;20465;-63
2022/05/22 01:00:16;;;;;;;4.30;2.45;;;10.00;99.90;;;;;;5090464;28;20486;-62
2022/05/22 01:05:27;;;;;;;3.83;1.83;;;9.90;99.90;;;;;;5092244;28;20095;-63
2022/05/22 01:07:53;;;;;;;3.10;1.80;;;9.90;99.90;;;;;;5091057;28;20047;-63
2022/05/22 01:10:20;;;;;;;3.30;2.00;;;9.80;99.90;;;;;;5113640;28;20127;-63
2022/05/22 01:12:46;;;;;;;3.85;2.28;;;9.80;99.90;;;;;;5094771;28;20043;-62
2022/05/22 01:15:13;;;;;;;4.82;2.83;;;9.80;99.90;;;;;;5093841;28;20054;-63
2022/05/22 01:17:46;;;;;;;3.67;2.47;;;9.80;99.90;;;;;;5095671;28;20045;-63
2022/05/22 01:20:13;;;;;;;6.50;2.63;;;9.70;99.90;;;;;;5112083;28;20318;-63
2022/05/22 01:22:39;;;;;;;3.55;2.15;;;9.60;99.90;;;;;;5112303;28;20355;-63
2022/05/22 01:25:06;;;;;;;3.75;2.60;;;9.60;99.90;;;;;;5092289;28;20047;-63
2022/05/22 01:27:33;;;;;;;3.10;2.35;;;9.60;99.90;;;;;;5093903;28;20046;-64
2022/05/22 01:30:13;;;;;;;3.50;2.40;;;9.50;99.90;;;;;;5111700;28;20036;-63
2022/05/22 01:32:42;;;;;;;5.28;2.83;;;9.50;99.90;;;;;;5092777;28;20039;-63
2022/05/22 01:35:09;;;;;;;3.28;2.65;;;9.50;99.90;;;;;;5108807;28;20379;-62
2022/05/22 01:37:34;;;;;;;5.65;3.20;;;9.50;99.90;;;;;;5111123;28;20035;-63
2022/05/22 01:40:00;;;;;;;6.82;3.40;;;9.50;99.90;;;;;;5093920;28;20135;-63
2022/05/22 01:42:26;;;;;;;7.75;3.60;;;9.50;99.90;;;;;;5112742;28;20067;-63
2022/05/22 01:44:51;;;;;;;6.00;3.28;;;9.50;99.90;;;;;;5092962;28;20031;-63
2022/05/22 01:47:17;;;;;;;7.13;3.67;;;9.50;99.90;;;;;;5093010;28;20492;-63
2022/05/22 01:49:43;;;;;;;6.32;3.55;;;9.40;99.90;;;;;;5089607;28;20040;-63
2022/05/22 01:52:08;;;;;;;6.55;4.00;;;9.50;99.90;;;;;;5093956;28;20044;-63
2022/05/22 01:54:34;;;;;;;8.50;3.78;;;9.40;99.90;;;;;;5075405;28;20055;-63
2022/05/22 01:56:59;;;;;;;6.03;3.22;;;9.40;99.90;;;;;;5094387;28;20098;-63
2022/05/22 01:59:26;;;;;;;6.88;3.20;;;9.40;99.90;;;;;;5075642;28;20539;-63
2022/05/22 02:01:52;;;;;;;4.88;2.75;;;9.40;99.90;;;;;;5112614;27;20043;-63
2022/05/22 02:04:17;;;;;;;5.10;2.92;;;9.30;99.90;;;;;;5113082;28;20034;-63
2022/05/22 02:09:28;;;;;;;7.05;3.38;;;9.30;99.90;;;;;;5111000;28;20047;-62
2022/05/22 02:11:54;;;;;;;6.88;3.38;;;9.30;99.90;;;;;;5077827;28;20047;-63
2022/05/22 02:14:20;;;;;;;5.53;3.05;;;9.20;99.90;;;;;;5075534;28;20421;-63
2022/05/22 02:16:45;;;;;;;7.20;3.10;;;9.20;99.90;;;;;;5093333;28;20071;-63
2022/05/22 02:19:11;;;;;;;5.07;3.75;;;9.20;99.90;;;;;;5112248;28;20115;-63
2022/05/22 02:21:37;;;;;;;6.40;3.90;;;9.10;99.90;;;;;;5112612;28;20032;-63
2022/05/22 02:24:03;;;;;;;5.95;3.20;;;9.10;99.90;;;;;;5093272;28;20048;-63
2022/05/22 02:26:29;;;;;;;4.97;3.33;;;9.10;99.90;;;;;;5091887;28;20058;-63
2022/05/22 02:28:54;;;;;;;11.20;3.78;;;9.10;99.90;;;;;;5093060;28;20460;-63
2022/05/22 02:31:20;;;;;;;4.35;3.70;;;9.10;99.90;;;;;;5093497;28;20126;-63
2022/05/22 02:33:46;;;;;;;8.70;3.63;;;9.10;99.90;;;;;;5093552;28;20396;-63
2022/05/22 02:36:13;;;;;;;5.80;3.50;;;9.10;99.90;;;;;;5091219;28;20040;-63
2022/05/22 02:38:41;;;;;;;5.53;3.13;;;9.10;99.90;;;;;;5108801;28;20032;-63
2022/05/22 02:41:16;;;;;;;10.38;3.88;;;9.00;99.90;;;;;;5110277;28;20094;-63
2022/05/22 02:43:42;;;;;;;4.35;3.22;;;9.00;99.90;;;;;;5092935;28;20543;-63
2022/05/22 02:46:09;;;;;;;4.65;2.90;;;9.00;99.90;;;;;;5090371;27;20044;-63
2022/05/22 02:48:35;;;;;;;3.85;2.60;;;9.00;99.90;;;;;;5093082;28;20057;-63
2022/05/22 02:51:01;;;;;;;5.95;3.28;;;9.00;99.90;;;;;;5091988;28;20047;-63
2022/05/22 02:53:27;;;;;;;4.97;3.35;;;9.00;99.90;;;;;;5112165;28;20039;-63
2022/05/22 02:55:52;;;;;;;5.82;3.20;;;9.00;99.90;;;;;;5107991;28;20047;-63
2022/05/22 02:58:18;;;;;;;7.07;3.25;;;9.00;99.90;;;;;;5091695;28;20073;-63
2022/05/22 03:00:44;;;;;;;5.15;3.47;;;8.90;99.90;;;;;;5111031;28;20107;-63
2022/05/22 03:03:09;;;;;;;4.80;2.85;;;9.00;99.90;;;;;;5092742;28;20097;-63
2022/05/22 03:08:19;;;;;;;4.18;2.63;;;9.00;99.90;;;;;;5091521;28;20374;-63
2022/05/22 03:10:45;;;;;;;6.55;3.00;;;8.90;99.90;;;;;;5092988;28;20096;-63
2022/05/22 03:13:12;;;;;;;5.93;3.38;;;8.90;99.90;;;;;;5090899;28;20062;-63
2022/05/22 03:15:38;;;;;;;5.63;3.28;;;8.80;99.90;;;;;;5093234;28;20123;-63
2022/05/22 03:18:04;;;;;;;7.05;3.00;;;8.80;99.90;;;;;;5108997;28;20077;-63
2022/05/22 03:20:30;;;;;;;4.93;3.10;;;8.90;99.90;;;;;;5093031;28;20039;-63
2022/05/22 03:22:58;;;;;;;4.38;2.72;;;8.90;99.90;;;;;;5109380;28;20107;-63
2022/05/22 03:25:24;;;;;;;6.10;3.00;;;8.90;99.90;;;;;;5111434;28;20406;-63
2022/05/22 03:27:49;;;;;;;5.45;3.05;;;8.90;99.90;;;;;;5109296;28;20039;-63
2022/05/22 03:30:15;;;;;;;5.15;3.03;;;8.80;99.90;;;;;;5090037;28;20060;-63
2022/05/22 03:32:41;;;;;;;4.55;2.40;;;8.80;99.90;;;;;;5092133;28;20035;-63
2022/05/22 03:35:07;;;;;;;5.90;2.80;;;8.80;99.90;;;;;;5114849;27;21149;-63
2022/05/22 03:37:32;;;;;;;4.57;2.70;;;8.80;99.90;;;;;;5093033;28;20043;-63
2022/05/22 03:39:58;;;;;;;4.57;3.00;;;8.80;99.90;;;;;;5108342;28;20046;-63
2022/05/22 03:42:24;;;;;;;4.80;2.80;;;8.80;99.90;;;;;;5092611;28;20065;-63
2022/05/22 03:44:50;;;;;;;4.93;2.97;;;8.90;99.90;;;;;;5092120;28;20044;-63
2022/05/22 03:47:16;;;;;;;4.18;2.67;;;8.80;99.90;;;;;;5092857;28;20063;-63
2022/05/22 03:49:41;;;;;;;5.30;3.15;;;8.90;99.90;;;;;;5090529;28;20035;-63
2022/05/22 03:52:07;;;;;;;5.03;3.00;;;8.90;99.90;;;;;;5091582;28;20047;-63
2022/05/22 03:54:33;;;;;;;4.80;2.70;;;8.90;99.90;;;;;;5092855;28;20126;-63
2022/05/22 03:56:58;;;;;;;5.22;3.03;;;8.90;99.90;;;;;;5092534;28;20054;-63
2022/05/22 03:59:25;;;;;;;5.90;2.75;;;8.90;99.90;;;;;;5091095;28;20066;-62
2022/05/22 04:01:51;;;;;;;4.45;3.00;;;8.90;99.90;;;;;;5092066;28;20112;-63
2022/05/22 04:04:17;;;;;;;5.53;2.90;;;8.90;99.90;;;;;;5092402;28;20027;-63
2022/05/22 04:06:43;;;;;;;4.72;2.63;;;8.90;99.90;;;;;;5106545;28;20503;-63
2022/05/22 04:09:08;;;;;;;6.28;2.83;;;9.00;99.90;;;;;;5110715;28;20070;-63
2022/05/22 04:11:34;;;;;;;4.28;3.03;;;9.00;99.90;;;;;;5109524;28;20036;-63
2022/05/22 04:14:02;;;;;;;5.55;2.90;;;9.10;99.90;;;;;;5092587;28;20427;-63
2022/05/22 04:16:27;;;;;;;6.20;2.47;;;9.10;99.90;;;;;;5091515;27;20079;-63
2022/05/22 04:18:53;;;;;;;4.15;2.40;;;9.10;99.90;;;;;;5110697;28;20070;-64
2022/05/22 04:21:19;;;;;;;4.15;2.47;;;9.20;99.90;;;;;;5089078;28;20032;-62
2022/05/22 04:26:32;;;;;;;5.80;2.50;;;9.30;99.90;;;;;;5092683;28;20051;-63
2022/05/22 04:28:58;;;;;;;4.35;2.53;;;9.40;99.90;;;;;;5108555;28;20121;-63
2022/05/22 04:31:23;;;;;;;4.72;2.55;;;9.40;99.90;;;;;;5090590;28;20069;-63
2022/05/22 04:33:49;;;;;;;5.00;2.78;;;9.50;99.90;;;;;;5107937;28;20035;-63
2022/05/22 04:36:15;;;;;;;4.85;2.80;;;9.60;99.90;;;;;;5089520;28;20063;-63
2022/05/22 04:38:41;;;;;;;4.78;3.17;;;9.60;99.90;;;;;;5092013;28;20104;-63
2022/05/22 04:41:06;;;;;;;7.22;3.40;;;9.60;99.90;;;;;;5091729;28;20537;-63
2022/05/22 04:43:33;;;;;;;8.40;3.85;;;9.70;99.90;;;;;;5091147;28;20038;-63
2022/05/22 04:45:59;;;;;;;7.90;4.35;;;9.70;99.90;;;;;;5093166;28;20127;-63
2022/05/22 04:48:26;;;;;;;5.50;3.80;;;9.70;99.90;;;;;;5094816;28;20131;-63
2022/05/22 04:50:53;;;;;;;6.47;4.07;;;9.80;99.90;;;;;;5075738;28;20035;-63
2022/05/22 04:53:22;;;;;;;6.82;4.18;;;9.90;99.90;;;;;;5111350;28;20028;-63
2022/05/22 04:55:48;;;;;;;7.93;4.10;;;10.00;99.90;;;;;;5096316;28;20601;-63
2022/05/22 04:58:15;;;;;;;8.48;4.20;;;10.10;99.90;;;;;;5111898;28;20071;-63
2022/05/22 05:00:41;;;;;;;10.25;4.32;;;10.20;99.90;;;;;;5113005;28;20031;-63
2022/05/22 05:03:06;;;;;;;9.23;4.40;;;10.30;99.90;;;;;;5110030;28;20110;-63
2022/05/22 05:05:32;;;;;;;10.25;4.10;;;10.40;99.90;;;;;;5094041;28;20147;-63
2022/05/22 05:07:58;;;;;;;8.98;4.35;;;10.50;99.90;;;;;;5112387;28;20059;-65
2022/05/22 05:10:24;;;;;;;9.15;3.80;;;10.60;99.90;;;;;;5104660;28;20044;-64
2022/05/22 05:12:50;;;;;;;9.30;4.07;;;10.60;99.90;;;;;;5096212;28;20860;-64
2022/05/22 05:15:18;;;;;;;9.57;4.78;;;10.80;99.90;;;;;;5093343;28;20114;-64
2022/05/22 05:17:45;;;;;;;8.20;4.43;;;10.90;99.90;;;;;;5113046;28;20387;-64
2022/05/22 05:20:13;;;;;;;10.45;4.43;;;11.00;99.90;;;;;;5091167;28;20410;-64
2022/05/22 05:22:39;;;;;;;11.60;4.25;;;11.00;99.90;;;;;;5111825;28;20028;-64
2022/05/22 05:25:05;;;;;;;9.15;4.10;;;11.20;99.90;;;;;;5094491;28;20422;-63
2022/05/22 05:27:31;;;;;;;7.90;3.67;;;11.20;99.90;;;;;;5095821;28;20044;-64
2022/05/22 05:29:57;;;;;;;6.72;3.72;;;11.30;99.90;;;;;;5124410;27;20038;-64
2022/05/22 05:32:23;;;;;;;10.15;4.38;;;11.50;99.90;;;;;;5134386;27;20031;-63
2022/05/22 05:34:57;;;;;;;5.50;3.53;;;11.50;99.90;;;;;;5095227;28;20046;-64
2022/05/22 05:37:24;;;;;;;7.97;4.40;;;11.60;99.90;;;;;;5093671;28;20048;-63
2022/05/22 05:39:50;;;;;;;9.65;4.00;;;11.80;99.90;;;;;;5108558;28;20031;-63
2022/05/22 05:42:15;;;;;;;7.00;4.07;;;11.90;99.90;;;;;;5095601;28;20452;-63
2022/05/22 05:44:41;;;;;;;10.10;4.13;;;12.00;99.90;;;;;;5117003;27;20503;-63
2022/05/22 05:47:08;;;;;;;8.50;4.20;;;12.20;99.90;;;;;;5095700;28;20080;-63
2022/05/22 05:49:36;;;;;;;7.28;4.00;;;12.40;99.90;;;;;;5094694;28;20050;-64
2022/05/22 05:52:02;;;;;;;10.02;4.85;;;12.40;99.90;;;;;;5095408;28;20069;-64
2022/05/22 05:54:29;;;;;;;10.18;4.40;;;12.60;99.90;;;;;;5103377;27;20046;-63
2022/05/22 05:56:55;;;;;;;9.02;3.92;;;12.60;99.90;;;;;;5090616;28;20036;-63
2022/05/22 05:59:20;;;;;;;6.85;4.05;;;12.70;99.90;;;;;;5095000;28;20036;-63
2022/05/22 06:01:46;;;;;;;7.80;4.30;;;12.90;99.90;;;;;;5098344;27;20031;-63
2022/05/22 06:04:12;;;;;;;11.43;4.28;;;13.00;99.90;;;;;;5101246;28;20089;-64
2022/05/22 06:06:38;;;;;;;12.13;4.72;;;13.20;99.90;;;;;;5093006;28;20044;-64
2022/05/22 06:09:04;;;;;;;9.82;4.07;;;13.30;99.90;;;;;;5092570;28;20043;-64
2022/05/22 06:11:30;;;;;;;8.38;4.05;;;13.50;99.90;;;;;;5108860;28;20036;-64
2022/05/22 06:13:56;;;;;;;9.88;3.92;;;13.60;99.90;;;;;;5100011;28;20088;-65
2022/05/22 06:16:22;;;;;;;11.88;3.67;;;13.70;99.90;;;;;;5111589;28;20530;-64
2022/05/22 06:18:48;;;;;;;10.80;3.88;;;13.80;99.90;;;;;;5091413;28;20039;-64
2022/05/22 06:21:17;;;;;;;8.07;3.90;;;14.00;99.90;;;;;;5109508;28;20439;-64
2022/05/22 06:23:43;;;;;;;8.52;4.10;;;14.10;99.90;;;;;;5093559;28;20035;-64
2022/05/22 06:26:11;;;;;;;8.02;3.85;;;14.20;99.90;;;;;;5111719;28;20047;-63
2022/05/22 06:28:37;;;;;;;8.55;3.63;;;14.30;99.90;;;;;;5093848;28;20569;-64
2022/05/22 06:31:05;;;;;;;9.63;4.32;;;14.40;99.90;;;;;;5094135;28;20043;-64
2022/05/22 06:33:31;;;;;;;12.27;3.88;;;14.50;99.90;;;;;;5113124;27;20859;-63
2022/05/22 06:35:57;;;;;;;6.85;3.50;;;14.60;99.90;;;;;;5112562;28;20088;-64
2022/05/22 06:41:10;;;;;;;12.30;4.45;;;14.80;99.90;;;;;;5089805;28;20122;-63
2022/05/22 06:43:35;;;;;;;8.10;3.33;;;15.00;99.90;;;;;;5107064;28;20047;-64
2022/05/22 06:46:02;;;;;;;9.93;3.60;;;15.00;99.90;;;;;;5112774;28;20039;-64
2022/05/22 06:48:28;;;;;;;10.77;3.42;;;15.10;99.90;;;;;;5094431;28;20126;-63
2022/05/22 06:50:54;;;;;;;11.80;3.60;;;15.20;99.90;;;;;;5106106;28;20034;-64
2022/05/22 06:53:20;;;;;;;8.43;3.10;;;15.10;99.90;;;;;;5092574;28;20394;-63
2022/05/22 06:55:46;;;;;;;12.23;3.88;;;15.10;99.90;;;;;;5099390;27;20477;-64
2022/05/22 06:58:12;;;;;;;8.10;3.47;;;15.20;99.90;;;;;;5117580;27;20042;-64
2022/05/22 07:00:38;;;;;;;8.38;3.65;;;15.20;99.90;;;;;;5090132;28;20032;-64
2022/05/22 07:03:04;;;;;;;10.25;3.55;;;15.30;99.90;;;;;;5105081;28;20027;-64
2022/05/22 07:05:29;;;;;;;11.65;3.67;;;15.50;99.90;;;;;;5097404;28;20056;-64
2022/05/22 07:07:55;;;;;;;9.73;3.60;;;15.60;99.90;;;;;;5093422;28;20039;-63
2022/05/22 07:11:38;;;;;;;8.65;3.58;;;15.70;99.90;;;;;;5094464;28;20038;-64
2022/05/22 07:13:06;;;;;;;9.35;3.08;;;16.00;99.90;;;;;;5107749;28;20518;-63
2022/05/22 07:15:32;;;;;;;7.40;2.70;;;16.10;99.90;;;;;;5090615;28;20070;-64
2022/05/22 07:17:57;;;;;;;10.50;3.17;;;16.30;99.90;;;;;;5111448;28;20058;-64
2022/05/22 07:20:23;;;;;;;9.80;2.92;;;16.20;99.90;;;;;;5109740;27;20039;-64
2022/05/22 07:22:49;;;;;;;10.23;2.70;;;16.30;99.90;;;;;;5093320;28;20044;-64
2022/05/22 07:25:14;;;;;;;9.52;2.65;;;16.30;99.90;;;;;;5111413;28;20562;-63
2022/05/22 07:27:41;;;;;;;6.93;2.22;;;16.30;99.90;;;;;;5111492;28;20135;-64
2022/05/22 07:30:07;;;;;;;9.35;2.65;;;16.40;99.90;;;;;;5107267;27;20059;-64
2022/05/22 07:32:33;;;;;;;8.63;2.38;;;16.40;99.90;;;;;;5132279;27;20027;-63
2022/05/22 07:34:59;;;;;;;10.43;2.80;;;16.70;99.90;;;;;;5113303;27;20039;-63
2022/05/22 07:37:25;;;;;;;7.38;2.78;;;16.70;99.90;;;;;;5098672;28;20485;-64
2022/05/22 07:39:51;;;;;;;7.15;2.50;;;16.80;99.90;;;;;;5074855;28;20051;-64
2022/05/22 07:42:16;;;;;;;11.55;2.95;;;16.80;99.90;;;;;;5109583;28;20031;-64
2022/05/22 07:44:42;;;;;;;7.82;1.95;;;16.70;99.90;;;;;;5090724;28;20675;-64
2022/05/22 07:47:08;;;;;;;6.25;2.17;;;16.80;99.90;;;;;;5124924;27;20035;-64
2022/05/22 07:52:17;;;;;;;8.93;2.15;;;16.60;99.90;;;;;;5092128;28;20048;-64
2022/05/22 07:54:43;;;;;;;10.00;2.50;;;16.70;99.90;;;;;;5091824;28;20393;-64
2022/05/22 07:57:09;;;;;;;11.65;2.83;;;16.90;99.90;;;;;;5091078;28;20054;-64
2022/05/22 07:59:36;;;;;;;9.48;3.63;;;17.10;99.90;;;;;;5111328;28;20036;-64
2022/05/22 08:02:04;;;;;;;7.97;2.53;;;17.40;99.90;;;;;;5074201;28;20389;-64
2022/05/22 08:04:30;;;;;;;9.60;2.38;;;17.50;99.90;;;;;;5092901;28;20110;-64
2022/05/22 08:06:56;;;;;;;9.85;2.42;;;17.50;99.90;;;;;;5092243;28;20059;-64
2022/05/22 08:09:21;;;;;;;8.40;2.70;;;17.70;99.90;;;;;;5108456;28;20039;-64
2022/05/22 08:11:47;;;;;;;6.93;2.15;;;17.70;99.90;;;;;;5092085;28;20452;-64
2022/05/22 08:14:15;;;;;;;7.82;2.38;;;17.70;99.90;;;;;;5092467;28;20098;-64
2022/05/22 08:16:44;;;;;;;7.10;2.13;;;17.70;99.90;;;;;;5110505;28;20036;-64
2022/05/22 08:19:10;;;;;;;8.25;2.90;;;18.00;99.90;;;;;;5109823;28;20141;-64
2022/05/22 08:21:36;;;;;;;8.15;2.50;;;18.10;99.90;;;;;;5106939;28;20043;-64
2022/05/22 08:24:03;;;;;;;7.35;2.83;;;18.30;99.90;;;;;;5131403;27;20035;-64
2022/05/22 08:26:28;;;;;;;8.70;2.50;;;18.50;99.90;;;;;;5107764;28;20117;-64
2022/05/22 08:28:54;;;;;;;9.07;2.40;;;18.60;99.90;;;;;;5091566;28;20115;-64
2022/05/22 08:31:20;;;;;;;9.20;2.50;;;18.60;99.90;;;;;;5090534;28;20379;-64
2022/05/22 08:33:46;;;;;;;8.60;2.33;;;18.50;99.90;;;;;;5089441;28;20035;-64
2022/05/22 08:36:12;;;;;;;8.70;2.38;;;18.50;99.90;;;;;;5091155;28;20039;-64
2022/05/22 08:38:37;;;;;;;8.15;2.17;;;18.50;99.90;;;;;;5090929;28;20035;-64
2022/05/22 08:41:13;;;;;;;10.63;2.40;;;18.50;99.90;;;;;;5108427;28;20024;-64
2022/05/22 08:44:14;;;;;;;7.25;2.38;;;18.50;99.90;;;;;;5110730;28;20032;-64
2022/05/22 08:46:49;;;;;;;7.68;1.85;;;18.60;99.90;;;;;;5011434;28;20049;-64
2022/05/22 08:49:30;;;;;;;7.38;1.92;;;18.70;99.90;;;;;;5027636;28;20468;-64
2022/05/22 08:52:18;;;;;;;9.32;2.22;;;18.90;99.90;;;;;;5007769;28;20049;-64
2022/05/22 08:54:50;;;;;;;9.82;1.98;;;18.90;99.90;;;;;;5026910;28;20400;-64
2022/05/22 09:00:25;;;;;;;5.65;1.98;;;18.90;99.90;;;;;;5008723;28;20057;-65
2022/05/22 09:03:06;;;;;;;4.32;1.70;;;19.10;99.90;;;;;;5026751;28;20085;-64
2022/05/22 09:05:33;;;;;;;6.88;1.90;;;19.40;99.90;;;;;;5027256;28;20041;-64
2022/05/22 09:08:02;;;;;;;7.05;1.77;;;19.60;99.90;;;;;;5011045;28;20504;-64
2022/05/22 09:10:49;;;;;;;9.45;1.80;;;19.60;99.90;;;;;;5010857;28;20423;-65
2022/05/22 09:13:26;;;;;;;7.60;2.35;;;19.50;99.90;;;;;;5009560;28;20041;-64
2022/05/22 09:16:10;;;;;;;7.72;1.70;;;19.80;99.90;;;;;;5010454;28;20083;-64
2022/05/22 09:19:03;;;;;;;6.13;1.98;;;19.80;99.90;;;;;;4994864;28;20037;-64
2022/05/22 09:21:36;;;;;;;6.25;1.90;;;19.70;99.90;;;;;;5027496;28;20072;-64
2022/05/22 09:24:03;;;;;;;7.70;1.95;;;19.70;99.90;;;;;;5085626;28;20086;-64
2022/05/22 09:26:55;;;;;;;7.55;2.05;;;19.60;99.90;;;;;;5110229;28;20047;-64
2022/05/22 09:29:44;;;;;;;7.13;1.83;;;19.40;99.90;;;;;;5091416;28;20375;-64
2022/05/22 09:32:26;;;;;;;6.68;1.70;;;19.20;99.90;;;;;;5031208;28;20088;-64
2022/05/22 09:34:51;;;;;;;;;;;19.30;99.90;;;;;;5011681;28;20134;-64
2022/05/22 09:37:20;;;;;;;16.30;2.30;;;19.50;99.90;;;;;;5030676;28;20419;-64
2022/05/22 09:40:22;;;;;;;6.28;1.60;;;19.60;99.90;;;;;;5014062;28;20061;-64
2022/05/22 09:43:00;;;;;;;8.25;2.10;;;19.60;99.90;;;;;;5037286;28;20131;-64
2022/05/22 09:45:51;;;;;;;6.80;1.60;;;19.50;99.90;;;;;;5016516;28;20045;-64
2022/05/22 09:48:49;;;;;;;9.57;2.15;;;19.60;99.90;;;;;;5030922;28;20037;-64
2022/05/22 09:51:27;;;;;;;7.03;2.13;;;19.70;99.90;;;;;;5014730;28;20065;-64
2022/05/22 09:53:58;;;;;;;5.88;1.88;;;19.80;99.90;;;;;;5030884;28;20041;-64
2022/05/22 09:56:45;;;;;;;8.07;1.98;;;19.80;99.90;;;;;;5029888;28;20106;-64
2022/05/22 09:59:45;;;;;;;9.73;2.05;;;19.80;99.90;;;;;;5030403;28;20049;-64
2022/05/22 10:02:21;;;;;;;5.43;2.10;;;20.00;99.90;;;;;;5030754;28;20107;-64
2022/05/22 10:05:01;;;;;;;6.80;1.50;;;20.10;99.90;;;;;;5030076;28;20052;-64
2022/05/22 10:07:51;;;;;;;9.68;1.70;;;20.10;99.90;;;;;;5013209;28;20404;-64
2022/05/22 10:10:42;;;;;;;5.85;1.75;;;20.20;99.90;;;;;;5091029;28;20130;-64
2022/05/22 10:13:21;;;;;;;5.53;1.60;;;20.30;99.90;;;;;;5095694;28;20585;-64
2022/05/22 10:16:18;;;;;;;5.43;1.92;;;20.40;99.90;;;;;;5093363;28;20048;-64
2022/05/22 10:18:53;;;;;;;7.38;1.48;;;20.40;99.90;;;;;;5009920;28;20468;-64
2022/05/22 10:21:34;;;;;;;6.78;1.42;;;20.30;99.90;;;;;;5024445;28;20045;-64
2022/05/22 10:24:11;;;;;;;6.97;1.67;;;20.40;99.90;;;;;;5013744;28;20099;-64
2022/05/22 10:26:43;;;;;;;9.75;1.60;;;20.70;99.90;;;;;;5027388;28;20494;-64
2022/05/22 10:29:33;;;;;;;;;;;21.00;99.90;;;;;;5021847;28;20053;-64
2022/05/22 10:32:22;;;;;;;6.03;1.50;;;21.30;99.90;;;;;;4948169;28;20383;-64
2022/05/22 10:35:02;;;;;;;7.47;1.63;;;21.60;97.40;;;;;;4951545;28;20494;-64
2022/05/22 10:37:34;;;;;;;8.65;2.03;;;21.80;99.20;;;;;;4952830;28;21527;-64
2022/05/22 10:40:12;;;;;;;5.18;1.63;;;22.00;98.70;;;;;;4954964;28;20042;-64
2022/05/22 10:42:46;;;;;;;5.00;1.35;;;22.30;98.90;;;;;;4954708;28;20054;-64
2022/05/22 10:45:37;;;;;;;3.33;1.10;;;22.50;97.70;;;;;;4955574;28;20043;-64
2022/05/22 10:48:25;;;;;;;4.88;1.50;;;22.60;98.30;;;;;;4951363;28;20086;-64
2022/05/22 10:51:09;;;;;;;3.97;1.17;;;22.80;96.80;;;;;;4947224;28;20054;-64
2022/05/22 10:53:49;;;;;;;4.95;1.52;;;22.70;96.40;;;;;;4953252;28;20058;-65
2022/05/22 10:56:18;;;;;;;6.10;1.30;;;22.70;96.00;;;;;;5008353;28;20091;-64
2022/05/22 10:58:58;;;;;;;6.30;1.45;;;22.80;96.70;;;;;;4991104;28;20047;-64
2022/05/22 11:01:27;;;;;;;5.03;1.30;;;22.80;96.50;;;;;;5008133;28;20042;-64
2022/05/22 11:04:05;;;;;;;3.58;1.02;;;22.90;95.30;;;;;;5009279;28;20044;-64
2022/05/22 11:06:32;;;;;;;5.97;1.35;;;22.80;94.80;;;;;;4993294;28;20890;-64
2022/05/22 11:08:58;;;;;;;4.50;1.33;;;22.80;94.80;;;;;;5031414;28;20454;-65
2022/05/22 11:11:30;;;;;;;4.30;1.42;;;22.70;94.30;;;;;;5090889;28;20055;-63
2022/05/22 11:14:06;;;;;;;3.20;1.15;;;22.80;94.20;;;;;;5092209;28;20394;-64
2022/05/22 11:16:32;;;;;;;5.72;1.25;;;22.70;93.40;;;;;;5088012;28;20627;-64
2022/05/22 11:19:09;;;;;;;4.40;1.05;;;22.60;92.90;;;;;;5094657;28;20044;-64
2022/05/22 11:21:44;;;;;;;3.78;1.20;;;22.10;92.90;;;;;;5101493;27;20131;-64
2022/05/22 11:47:23;;;;;;;3.75;1.00;;;22.00;92.90;;;;;;5066751;28;20480;-64
2022/05/22 11:50:00;;;;;;;6.10;1.67;;;22.10;93.70;;;;;;5065778;28;20129;-62
2022/05/22 11:53:02;;;;;;;4.30;1.10;;;22.20;93.60;;;;;;5065272;28;20510;-63
2022/05/22 11:55:53;;;;;;;3.88;1.30;;;22.30;93.90;;;;;;5061378;28;20045;-63
2022/05/22 11:58:44;;;;;;;5.22;1.55;;;22.30;94.40;;;;;;5063697;28;20451;-62
2022/05/22 12:01:21;;;;;;;4.95;1.50;;;22.40;94.20;;;;;;5064284;28;20049;-62
2022/05/22 12:04:10;;;;;;;5.20;1.40;;;22.40;94.30;;;;;;5061918;28;20417;-61
2022/05/22 12:06:41;;;;;;;3.58;1.10;;;22.40;93.80;;;;;;5040704;28;20071;-63
2022/05/22 12:09:33;;;;;;;5.45;1.67;;;22.30;93.90;;;;;;5041414;28;20056;-63
2022/05/22 12:12:08;;;;;;;6.53;1.67;;;22.30;94.00;;;;;;5042502;28;20389;-61
2022/05/22 12:15:03;;;;;;;4.93;1.50;;;22.30;94.00;;;;;;5041708;28;20076;-63
2022/05/22 12:17:46;;;;;;;4.93;1.35;;;22.30;93.60;;;;;;5041480;28;20676;-63
2022/05/22 12:20:24;;;;;;;4.38;1.48;;;22.10;93.50;;;;;;5042221;28;20155;-63
2022/05/22 12:23:12;;;;;;;4.13;1.25;;;22.10;93.90;;;;;;5041564;28;20053;-64
2022/05/22 12:25:50;;;;;;;4.38;1.13;;;22.00;93.00;;;;;;5025720;28;20053;-64
2022/05/22 12:28:42;;;;;;;4.85;1.17;;;21.90;93.70;;;;;;5039927;28;20045;-64
2022/05/22 12:31:22;;;;;;;5.43;1.35;;;21.80;92.90;;;;;;4955854;28;20565;-63
2022/05/22 12:33:50;;;;;;;4.30;1.00;;;21.60;93.30;;;;;;4958270;28;20046;-62
2022/05/22 12:36:22;;;;;;;3.92;1.13;;;21.60;93.60;;;;;;4957588;28;20387;-63
2022/05/22 12:39:12;;;;;;;5.22;1.40;;;21.60;93.30;;;;;;4965356;28;20058;-63
2022/05/22 12:41:53;;;;;;;4.22;1.30;;;21.40;93.10;;;;;;4965731;28;20047;-64
2022/05/22 12:44:19;;;;;;;6.70;1.85;;;21.20;93.20;;;;;;4977844;28;20042;-64
2022/05/22 12:46:46;;;;;;;4.28;1.10;;;21.20;93.40;;;;;;4984346;28;20081;-65
2022/05/22 12:49:32;;;;;;;9.00;1.25;;;21.20;93.30;;;;;;4966240;28;20050;-64
2022/05/22 12:52:06;;;;;;;3.72;1.23;;;21.30;93.20;;;;;;4984966;28;20038;-65
2022/05/22 12:54:37;;;;;;;3.92;1.48;;;21.20;93.00;;;;;;4951946;28;20130;-64
2022/05/22 12:57:21;;;;;;;6.30;1.60;;;21.20;93.20;;;;;;4964111;28;20042;-64
2022/05/22 13:00:11;;;;;;;4.05;1.20;;;21.20;93.20;;;;;;4972319;28;20113;-64
2022/05/22 13:02:42;;;;;;;4.18;1.70;;;21.30;93.30;;;;;;4970902;28;20063;-64
2022/05/22 13:05:23;;;;;;;4.50;1.30;;;21.30;93.90;;;;;;4970004;28;20486;-64
2022/05/22 13:07:49;;;;;;;4.40;1.55;;;21.40;94.10;;;;;;4997296;28;20060;-63
2022/05/22 13:10:32;;;;;;;6.20;1.33;;;21.40;94.00;;;;;;5052501;28;20310;-64
2022/05/22 13:13:06;;;;;;;4.07;1.20;;;21.40;93.60;;;;;;5052516;28;20037;-64
2022/05/22 13:15:33;;;;;;;4.88;1.27;;;21.30;92.60;;;;;;5051562;28;20052;-64
2022/05/22 13:18:12;;;;;;;4.97;1.85;;;21.20;93.00;;;;;;5052799;28;20040;-64
2022/05/22 13:20:37;;;;;;;5.03;1.70;;;21.20;92.80;;;;;;5051347;28;20048;-64
2022/05/22 13:23:07;;;;;;;4.10;1.40;;;21.10;93.20;;;;;;5051001;28;20045;-63
2022/05/22 13:26:04;;;;;;;3.92;1.20;;;21.00;93.20;;;;;;5052735;28;20099;-64
2022/05/22 13:28:32;;;;;;;5.45;1.40;;;20.90;92.80;;;;;;5052013;28;20072;-63
2022/05/22 13:31:07;;;;;;;5.20;1.33;;;20.80;92.80;;;;;;5052513;28;20044;-64
2022/05/22 13:33:45;;;;;;;4.45;1.33;;;20.70;92.90;;;;;;5052076;28;20113;-64
2022/05/22 13:36:26;;;;;;;5.43;1.30;;;20.80;93.10;;;;;;5051400;28;20036;-63
2022/05/22 13:38:53;;;;;;;3.95;1.10;;;20.80;93.40;;;;;;5052647;28;20403;-64
2022/05/22 13:41:49;;;;;;;6.63;1.40;;;20.80;93.10;;;;;;5051910;28;20483;-64
2022/05/22 13:44:52;;;;;;;5.25;1.10;;;20.80;92.40;;;;;;5050448;28;20040;-64
2022/05/22 13:47:24;;;;;;;3.45;1.38;;;20.70;92.90;;;;;;5050850;28;20128;-64
2022/05/22 13:53:06;;;;;;;4.28;1.08;;;20.70;92.90;;;;;;5052297;28;20499;-64
2022/05/22 13:55:36;;;;;;;3.20;1.15;;;20.80;92.80;;;;;;5051859;28;20445;-64
2022/05/22 13:58:20;;;;;;;4.28;1.02;;;20.80;92.90;;;;;;5052014;28;20028;-64